Palmetto Bay, Florida
Current Conditions -  °F | °C
As of 2:53 AM on Friday 31 Oct 2014 (Local Time) from KTMB Reporting Station
Clear Clear  
Wind Chill: 75°   Ceiling: Unl
Heat Index: 75°   Visibility: 10mi
Dew Point: 69°   Wind: 6mph
Humidity: 82%   Direction: 240°WSW
Pressure: 29.86"   Gusts: NA
Location:  25.6371°N, 80.3102°W
Report Text: KTMB 310653Z 24005KT 10SM CLR 24/21 A2986 RMK AO2 SLP110 T02390206
Loading
Personal Weather Stations






























Interactive Weather Map
Tropical Storm Tracking
New forecast layout! Learn more

10-Day Weather Forecast

Advertisements
Track Severe Weather on mobile